Terminal Aerodrome Forecast
Issued by NWS

Home | Current Version | Previous Version | Graphics & Text | Print | Product List | Glossary On
Versions: 1 2 3 4 5 6 7 8 9 10 11 12 13 14 15 16 17 18
000
FTUS43 KGRB 181700 RRA
TAFATW
TAF
KATW 181740Z 1818/1918 01007KT P6SM OVC015
      TEMPO 1822/1824 SCT020
     FM190000 35004KT P6SM SCT020
     FM190300 33004KT P6SM SCT250
     FM191500 31005KT P6SM SKC=

USA.gov is the U.S. government's official web portal to all federal, state and local government web resources and services.